createdAt,value
2017-10-13T00:00:04.790Z,99.99
2017-10-13T00:01:17.360Z,99.99
2017-10-13T00:02:29.605Z,99.99
2017-10-13T00:03:41.849Z,99.99
2017-10-13T00:04:54.423Z,99.99
2017-10-13T00:06:06.991Z,99.99
2017-10-13T00:07:18.913Z,99.99
2017-10-13T00:08:31.483Z,99.99
2017-10-13T00:09:43.729Z,99.99
2017-10-13T00:10:56.299Z,99.99
2017-10-13T00:12:08.562Z,99.99
2017-10-13T00:13:20.816Z,99.99
2017-10-13T00:14:33.082Z,99.99
2017-10-13T00:15:45.332Z,99.99
2017-10-13T00:16:57.902Z,99.99
2017-10-13T00:18:09.822Z,99.99
2017-10-13T00:19:22.412Z,99.99
2017-10-13T00:20:34.665Z,99.99
2017-10-13T00:21:46.941Z,99.99
2017-10-13T00:22:59.506Z,99.99
2017-10-13T00:24:11.752Z,99.99
2017-10-13T00:25:23.998Z,99.99
2017-10-13T00:26:36.242Z,99.99
2017-10-13T00:27:48.489Z,99.99
2017-10-13T00:29:00.735Z,99.99
2017-10-13T00:30:12.980Z,99.99
2017-10-13T00:31:25.575Z,99.99
2017-10-13T00:32:37.820Z,99.99
2017-10-13T00:33:49.742Z,99.99
2017-10-13T00:35:01.987Z,99.99
2017-10-13T00:36:14.258Z,99.99
2017-10-13T00:37:26.829Z,99.99
2017-10-13T00:38:39.407Z,99.99
2017-10-13T00:39:51.647Z,99.99
2017-10-13T00:41:04.216Z,99.99
2017-10-13T00:42:16.137Z,99.99
2017-10-13T00:43:28.383Z,99.99
2017-10-13T00:44:40.953Z,99.99
2017-10-13T00:45:53.225Z,99.99
2017-10-13T00:47:05.162Z,99.99
2017-10-13T00:48:17.717Z,99.99
2017-10-13T00:49:30.301Z,99.99
2017-10-13T00:50:42.581Z,99.99
2017-10-13T00:51:55.152Z,99.99
2017-10-13T00:53:07.423Z,99.99
2017-10-13T00:54:19.994Z,99.99
2017-10-13T00:55:32.239Z,99.99
2017-10-13T00:56:44.811Z,99.99
2017-10-13T00:57:57.396Z,99.99
2017-10-13T00:59:09.950Z,99.99
2017-10-13T01:00:22.197Z,99.99
2017-10-13T01:01:34.772Z,99.99
2017-10-13T01:02:47.338Z,99.99
2017-10-13T01:03:59.933Z,99.99
2017-10-13T01:05:12.505Z,99.99
2017-10-13T01:06:24.751Z,99.99
2017-10-13T01:07:37.325Z,99.99
2017-10-13T01:08:49.891Z,99.99
2017-10-13T01:10:02.131Z,99.99
2017-10-13T01:11:14.057Z,99.99
2017-10-13T01:12:26.628Z,99.99
2017-10-13T01:13:39.500Z,99.99
2017-10-13T01:14:51.426Z,99.99
2017-10-13T01:16:03.664Z,99.99
2017-10-13T01:17:16.234Z,99.99
2017-10-13T01:18:28.805Z,99.99
2017-10-13T01:19:41.376Z,99.99
2017-10-13T01:20:53.628Z,99.99
2017-10-13T01:22:05.868Z,99.99
2017-10-13T01:23:18.139Z,99.99
2017-10-13T01:24:30.083Z,99.99
2017-10-13T01:25:42.629Z,99.99
2017-10-13T01:26:54.875Z,99.99
2017-10-13T01:28:07.449Z,99.99
2017-10-13T01:29:19.691Z,99.99
2017-10-13T01:30:32.261Z,99.99
2017-10-13T01:31:44.512Z,99.99
2017-10-13T01:32:56.754Z,99.99
2017-10-13T01:34:09.325Z,99.99
2017-10-13T01:35:21.912Z,99.99
2017-10-13T01:36:34.142Z,99.99
2017-10-13T01:37:46.711Z,99.99
2017-10-13T01:38:59.284Z,99.99
2017-10-13T01:40:11.853Z,99.99
2017-10-13T01:41:24.349Z,99.99
2017-10-13T01:42:36.270Z,99.99
2017-10-13T01:43:48.842Z,99.99
2017-10-13T01:45:00.785Z,99.99
2017-10-13T01:46:12.735Z,99.99
2017-10-13T01:47:25.301Z,99.99
2017-10-13T01:48:37.550Z,99.99
2017-10-13T01:49:50.136Z,99.99
2017-10-13T01:51:02.732Z,99.99
2017-10-13T01:52:15.310Z,99.99
2017-10-13T01:53:27.857Z,99.99
2017-10-13T01:54:40.127Z,99.99
2017-10-13T01:55:52.695Z,99.99
2017-10-13T01:57:04.641Z,99.99
2017-10-13T01:58:16.889Z,99.99
2017-10-13T01:59:28.482Z,99.99
2017-10-13T02:00:40.727Z,99.99
2017-10-13T02:01:52.991Z,99.99
2017-10-13T02:03:05.220Z,99.99
2017-10-13T02:04:17.795Z,99.99
2017-10-13T02:05:30.360Z,99.99
2017-10-13T02:06:42.933Z,99.99
2017-10-13T02:07:55.178Z,99.99
2017-10-13T02:09:07.774Z,99.99
2017-10-13T02:10:20.025Z,99.99
2017-10-13T02:11:32.265Z,99.99
2017-10-13T02:12:44.535Z,99.99
2017-10-13T02:13:57.106Z,99.99
2017-10-13T02:15:09.676Z,99.99
2017-10-13T02:16:22.247Z,99.99
2017-10-13T02:17:34.819Z,99.99
2017-10-13T02:18:47.390Z,99.99
2017-10-13T02:19:59.311Z,99.99
2017-10-13T02:21:11.580Z,99.99
2017-10-13T02:22:23.803Z,99.99
2017-10-13T02:23:36.371Z,99.99
2017-10-13T02:24:48.618Z,99.99
2017-10-13T02:26:00.862Z,99.99
2017-10-13T02:27:13.108Z,99.99
2017-10-13T02:28:25.682Z,99.99
2017-10-13T02:29:37.924Z,99.99
2017-10-13T02:30:50.170Z,99.99
2017-10-13T02:32:02.415Z,99.99
2017-10-13T02:33:14.679Z,99.99
2017-10-13T02:34:27.235Z,99.99
2017-10-13T02:35:38.833Z,99.99
2017-10-13T02:36:50.774Z,99.99
2017-10-13T02:38:03.036Z,99.99
2017-10-13T02:39:14.967Z,99.99
2017-10-13T02:40:27.535Z,99.99
2017-10-13T02:41:39.805Z,99.99
2017-10-13T02:42:52.055Z,99.99
2017-10-13T02:44:03.972Z,99.99
2017-10-13T02:45:16.218Z,99.99
2017-10-13T02:46:28.789Z,99.99
2017-10-13T02:47:41.343Z,99.99
2017-10-13T02:48:53.904Z,99.99
2017-10-13T02:50:06.476Z,99.99
2017-10-13T02:51:19.047Z,99.99
2017-10-13T02:52:31.617Z,99.99
2017-10-13T02:53:44.188Z,99.99
2017-10-13T02:54:56.757Z,99.99
2017-10-13T02:56:09.333Z,99.99
2017-10-13T02:57:21.899Z,99.99
2017-10-13T02:58:34.144Z,99.99
2017-10-13T02:59:46.416Z,99.99
2017-10-13T03:00:58.986Z,99.99
2017-10-13T03:02:11.233Z,99.99
2017-10-13T03:03:23.803Z,99.99
2017-10-13T03:04:36.375Z,99.99
2017-10-13T03:05:48.637Z,99.99
2017-10-13T03:07:01.189Z,99.99
2017-10-13T03:08:13.434Z,99.99
2017-10-13T03:09:26.006Z,99.99
2017-10-13T03:10:38.226Z,99.99
2017-10-13T03:11:50.472Z,99.99
2017-10-13T03:13:03.309Z,99.99
2017-10-13T03:14:15.881Z,99.99
2017-10-13T03:15:28.459Z,99.99
2017-10-13T03:16:40.704Z,99.99
2017-10-13T03:17:53.273Z,99.99
2017-10-13T03:19:05.521Z,99.99
2017-10-13T03:20:17.770Z,99.99
2017-10-13T03:21:29.687Z,99.99
2017-10-13T03:22:42.261Z,99.99
2017-10-13T03:23:54.828Z,99.99
2017-10-13T03:25:07.073Z,99.99
2017-10-13T03:26:19.644Z,99.99
2017-10-13T03:27:32.216Z,99.99
2017-10-13T03:28:44.786Z,99.99
2017-10-13T03:29:57.355Z,99.99
2017-10-13T03:31:09.928Z,99.99
2017-10-13T03:32:22.524Z,99.99
2017-10-13T03:33:34.768Z,99.99
2017-10-13T03:34:47.342Z,99.99
2017-10-13T03:35:59.909Z,99.99
2017-10-13T03:37:12.480Z,99.99
2017-10-13T03:38:25.027Z,99.99
2017-10-13T03:39:37.270Z,99.99
2017-10-13T03:40:49.517Z,99.99
2017-10-13T03:42:02.088Z,99.99
2017-10-13T03:43:14.335Z,99.99
2017-10-13T03:44:26.905Z,99.99
2017-10-13T03:45:39.774Z,99.99
2017-10-13T03:46:52.021Z,99.99
2017-10-13T03:48:04.565Z,99.99
2017-10-13T03:49:17.137Z,99.99
2017-10-13T03:50:29.408Z,99.99
2017-10-13T03:51:41.978Z,99.99
2017-10-13T03:52:54.248Z,99.99
2017-10-13T03:54:06.495Z,99.99
2017-10-13T03:55:18.757Z,99.99
2017-10-13T03:56:31.336Z,99.99
2017-10-13T03:57:43.582Z,99.99
2017-10-13T03:58:55.501Z,99.99
2017-10-13T04:00:07.747Z,99.99
2017-10-13T04:01:20.344Z,99.99
2017-10-13T04:02:32.916Z,99.99
2017-10-13T04:03:45.459Z,99.99
2017-10-13T04:04:58.030Z,99.99
2017-10-13T04:06:10.276Z,99.99
2017-10-13T04:07:22.822Z,99.99
2017-10-13T04:08:35.072Z,99.99
2017-10-13T04:09:47.330Z,99.99
2017-10-13T04:10:59.584Z,99.99
2017-10-13T04:12:11.830Z,99.99
2017-10-13T04:13:24.074Z,99.99
2017-10-13T04:14:35.996Z,99.99
2017-10-13T04:15:48.244Z,99.99
2017-10-13T04:16:59.864Z,99.99
2017-10-13T04:18:12.425Z,99.99
2017-10-13T04:19:24.678Z,99.99
2017-10-13T04:20:36.941Z,99.99
2017-10-13T04:21:49.544Z,99.99
2017-10-13T04:23:01.794Z,99.99
2017-10-13T04:24:14.362Z,99.99
2017-10-13T04:25:26.932Z,99.99
2017-10-13T04:26:39.503Z,99.99
2017-10-13T04:27:52.097Z,99.99
2017-10-13T04:29:04.944Z,99.99
2017-10-13T04:30:17.516Z,99.99
2017-10-13T04:31:29.766Z,99.99
2017-10-13T04:32:42.331Z,99.99
2017-10-13T04:33:54.901Z,99.99
2017-10-13T04:35:06.821Z,99.99
2017-10-13T04:36:19.067Z,99.99
2017-10-13T04:37:31.313Z,99.99
2017-10-13T04:38:43.558Z,99.99
2017-10-13T04:39:56.430Z,99.99
2017-10-13T04:41:08.998Z,99.99
2017-10-13T04:42:21.239Z,99.99
2017-10-13T04:43:33.817Z,99.99
2017-10-13T04:44:46.063Z,99.99
2017-10-13T04:45:58.556Z,99.99
2017-10-13T04:47:11.128Z,99.99
2017-10-13T04:48:23.699Z,99.99
2017-10-13T04:49:35.973Z,99.99
2017-10-13T04:50:48.215Z,99.99
2017-10-13T04:52:00.785Z,99.99
2017-10-13T04:53:13.357Z,99.99
2017-10-13T04:54:25.933Z,99.99
2017-10-13T04:55:38.497Z,99.99
2017-10-13T04:56:50.743Z,99.99
2017-10-13T04:58:03.014Z,99.99
2017-10-13T04:59:14.960Z,99.99
2017-10-13T05:00:27.530Z,99.99
2017-10-13T05:01:40.343Z,99.99
2017-10-13T05:02:52.597Z,99.99
2017-10-13T05:04:04.224Z,99.99
2017-10-13T05:05:16.794Z,99.99
2017-10-13T05:06:28.709Z,99.99
2017-10-13T05:07:41.279Z,99.99
2017-10-13T05:08:53.849Z,99.99
2017-10-13T05:10:06.413Z,99.99
2017-10-13T05:11:18.367Z,99.99
2017-10-13T05:12:30.937Z,99.99
2017-10-13T05:13:43.508Z,99.99
2017-10-13T05:14:55.753Z,99.99
2017-10-13T05:16:08.324Z,99.99
2017-10-13T05:17:20.894Z,99.99
2017-10-13T05:18:33.139Z,99.99
2017-10-13T05:19:45.711Z,99.99
2017-10-13T05:20:58.281Z,99.99
2017-10-13T05:22:10.527Z,99.99
2017-10-13T05:23:22.454Z,99.99
2017-10-13T05:24:35.019Z,99.99
2017-10-13T05:25:47.292Z,99.99
2017-10-13T05:26:59.859Z,99.99
2017-10-13T05:28:12.124Z,99.99
2017-10-13T05:29:24.675Z,99.99
2017-10-13T05:30:36.946Z,99.99
2017-10-13T05:31:49.521Z,99.99
2017-10-13T05:33:02.088Z,99.99
2017-10-13T05:34:14.683Z,99.99
2017-10-13T05:35:26.955Z,99.99
2017-10-13T05:36:39.216Z,99.99
2017-10-13T05:37:51.796Z,99.99
2017-10-13T05:39:04.368Z,99.99
2017-10-13T05:40:16.953Z,99.99
2017-10-13T05:41:28.882Z,99.99
2017-10-13T05:42:41.453Z,99.99
2017-10-13T05:43:54.027Z,99.99
2017-10-13T05:45:06.538Z,99.99
2017-10-13T05:46:18.765Z,99.99
2017-10-13T05:47:31.336Z,99.99
2017-10-13T05:48:43.931Z,99.99
2017-10-13T05:49:56.544Z,99.79
2017-10-13T05:51:09.127Z,99.99
2017-10-13T05:52:21.669Z,99.79
2017-10-13T05:53:34.232Z,99.31
2017-10-13T05:54:46.485Z,99.22
2017-10-13T05:55:58.729Z,99.41
2017-10-13T05:57:11.001Z,99.22
2017-10-13T05:58:23.597Z,98.83
2017-10-13T05:59:35.842Z,99.12
2017-10-13T06:00:48.430Z,98.83
2017-10-13T06:02:00.338Z,98.74
2017-10-13T06:03:12.907Z,98.74
2017-10-13T06:04:25.475Z,98.65
2017-10-13T06:05:38.038Z,98.65
2017-10-13T06:06:50.269Z,98.65
2017-10-13T06:08:02.879Z,98.17
2017-10-13T06:09:15.149Z,98.65
2017-10-13T06:10:27.728Z,98.27
2017-10-13T06:11:39.649Z,98.27
2017-10-13T06:12:52.221Z,98.17
2017-10-13T06:14:04.791Z,97.79
2017-10-13T06:15:16.428Z,97.98
2017-10-13T06:16:28.673Z,97.88
2017-10-13T06:17:40.869Z,97.69
2017-10-13T06:18:52.803Z,97.6
2017-10-13T06:20:05.368Z,97.22
2017-10-13T06:21:17.639Z,97.6
2017-10-13T06:22:29.885Z,97.03
2017-10-13T06:23:42.130Z,97.41
2017-10-13T06:24:54.719Z,97.41
2017-10-13T06:26:07.305Z,97.6
2017-10-13T06:27:19.543Z,98.08
2017-10-13T06:28:31.462Z,98.03
2017-10-13T06:29:43.707Z,97.55
2017-10-13T06:30:56.279Z,97.55
2017-10-13T06:32:08.524Z,97.17
2017-10-13T06:33:20.446Z,96.98
2017-10-13T06:34:32.693Z,97.84
2017-10-13T06:35:45.261Z,97.65
2017-10-13T06:36:57.833Z,97.17
2017-10-13T06:38:10.403Z,97.55
2017-10-13T06:39:23.248Z,98.03
2017-10-13T06:40:35.820Z,98.03
2017-10-13T06:41:48.064Z,97.84
2017-10-13T06:43:00.327Z,98.03
2017-10-13T06:44:12.572Z,97.74
2017-10-13T06:45:24.827Z,97.84
2017-10-13T06:46:37.398Z,97.84
2017-10-13T06:47:49.968Z,97.84
2017-10-13T06:49:02.230Z,97.93
2017-10-13T06:50:14.480Z,97.84
2017-10-13T06:51:27.030Z,98.32
2017-10-13T06:52:39.301Z,97.74
2017-10-13T06:53:51.873Z,98.13
2017-10-13T06:55:04.442Z,97.74
2017-10-13T06:56:16.687Z,98.41
2017-10-13T06:57:28.283Z,98.13
2017-10-13T06:58:40.230Z,98.03
2017-10-13T06:59:52.800Z,97.93
2017-10-13T07:01:04.728Z,97.99
2017-10-13T07:02:17.340Z,98.65
2017-10-13T07:03:29.587Z,98.84
2017-10-13T07:04:42.158Z,98.74
2017-10-13T07:05:54.727Z,98.94
2017-10-13T07:07:06.997Z,99.22
2017-10-13T07:08:18.944Z,99.32
2017-10-13T07:09:31.515Z,99.51
2017-10-13T07:10:44.084Z,99.79
2017-10-13T07:11:56.659Z,99.99
2017-10-13T07:13:08.602Z,99.99
2017-10-13T07:14:21.173Z,99.99
2017-10-13T07:15:33.743Z,99.99
2017-10-13T07:16:45.989Z,99.99
2017-10-13T07:17:58.239Z,99.99
2017-10-13T07:19:10.505Z,99.99
2017-10-13T07:20:22.443Z,99.99
2017-10-13T07:21:34.673Z,99.99
2017-10-13T07:22:46.867Z,99.99
2017-10-13T07:23:59.438Z,99.99
2017-10-13T07:25:12.008Z,99.99
2017-10-13T07:26:24.606Z,99.99
2017-10-13T07:27:36.525Z,99.99
2017-10-13T07:28:48.769Z,99.99
2017-10-13T07:30:01.346Z,99.99
2017-10-13T07:31:13.586Z,99.99
2017-10-13T07:32:25.832Z,99.99
2017-10-13T07:33:38.402Z,99.99
2017-10-13T07:34:51.000Z,99.99
2017-10-13T07:36:02.940Z,99.99
2017-10-13T07:37:15.190Z,99.99
2017-10-13T07:38:27.461Z,99.99
2017-10-13T07:39:40.036Z,99.99
2017-10-13T07:40:52.604Z,99.99
2017-10-13T07:42:04.848Z,99.99
2017-10-13T07:43:17.094Z,99.99
2017-10-13T07:44:29.012Z,99.99
2017-10-13T07:45:41.583Z,99.99
2017-10-13T07:46:54.154Z,99.99
2017-10-13T07:48:06.082Z,99.99
2017-10-13T07:49:18.050Z,99.99
2017-10-13T07:50:30.641Z,99.99
2017-10-13T07:51:43.213Z,99.99
2017-10-13T07:52:55.788Z,99.99
2017-10-13T07:54:07.402Z,99.99
2017-10-13T07:55:19.973Z,99.99
2017-10-13T07:56:31.921Z,99.99
2017-10-13T07:57:44.491Z,99.99
2017-10-13T07:58:57.059Z,99.99
2017-10-13T08:00:09.007Z,99.99
2017-10-13T08:01:21.576Z,99.99
2017-10-13T08:02:33.822Z,99.99
2017-10-13T08:03:46.409Z,99.99
2017-10-13T08:04:58.988Z,99.99
2017-10-13T08:06:11.560Z,99.99
2017-10-13T08:07:23.472Z,99.99
2017-10-13T08:08:35.726Z,99.99
2017-10-13T08:09:47.664Z,99.99
2017-10-13T08:10:58.967Z,99.99
2017-10-13T08:12:11.537Z,99.99
2017-10-13T08:13:24.108Z,99.99
2017-10-13T08:14:36.378Z,99.99
2017-10-13T08:15:48.650Z,99.99
2017-10-13T08:17:01.221Z,99.99
2017-10-13T08:18:13.790Z,99.99
2017-10-13T08:19:26.362Z,99.99
2017-10-13T08:20:38.933Z,99.99
2017-10-13T08:21:51.504Z,99.99
2017-10-13T08:23:04.100Z,99.99
2017-10-13T08:24:16.668Z,99.99
2017-10-13T08:25:28.611Z,99.99
2017-10-13T08:26:41.186Z,99.99
2017-10-13T08:27:53.773Z,99.99
2017-10-13T08:29:05.702Z,99.99
2017-10-13T08:30:18.290Z,99.99
2017-10-13T08:31:30.218Z,99.99
2017-10-13T08:32:42.139Z,99.99
2017-10-13T08:33:54.385Z,99.99
2017-10-13T08:35:06.631Z,99.99
2017-10-13T08:36:19.201Z,99.99
2017-10-13T08:37:31.475Z,99.99
2017-10-13T08:38:43.715Z,99.99
2017-10-13T08:39:55.662Z,99.99
2017-10-13T08:41:07.600Z,99.99
2017-10-13T08:42:19.554Z,99.99
2017-10-13T08:43:31.800Z,99.99
2017-10-13T08:44:44.374Z,99.99
2017-10-13T08:45:56.943Z,99.99
2017-10-13T08:47:09.192Z,99.99
2017-10-13T08:48:21.450Z,99.99
2017-10-13T08:49:33.705Z,99.99
2017-10-13T08:50:46.280Z,99.99
2017-10-13T08:51:58.844Z,99.99
2017-10-13T08:53:11.415Z,99.99
2017-10-13T08:54:24.002Z,99.99
2017-10-13T08:55:36.256Z,99.99
2017-10-13T08:56:48.182Z,99.99
2017-10-13T08:57:59.775Z,99.99
2017-10-13T08:59:12.359Z,99.99
2017-10-13T09:00:24.939Z,99.99
2017-10-13T09:01:37.202Z,99.99
2017-10-13T09:02:49.781Z,99.99
2017-10-13T09:04:02.026Z,99.99
2017-10-13T09:05:14.273Z,99.99
2017-10-13T09:06:26.521Z,99.99
2017-10-13T09:07:39.091Z,99.99
2017-10-13T09:08:51.781Z,99.99
2017-10-13T09:10:03.504Z,99.99
2017-10-13T09:11:14.856Z,99.99
2017-10-13T09:12:27.419Z,99.99
2017-10-13T09:13:39.983Z,99.99
2017-10-13T09:14:52.228Z,99.99
2017-10-13T09:16:04.808Z,99.99
2017-10-13T09:17:16.745Z,99.99
2017-10-13T09:18:28.990Z,99.99
2017-10-13T09:19:41.263Z,99.99
2017-10-13T09:20:53.531Z,99.99
2017-10-13T09:22:06.353Z,99.99
2017-10-13T09:23:18.609Z,99.99
2017-10-13T09:24:30.552Z,99.99
2017-10-13T09:25:42.172Z,99.99
2017-10-13T09:26:54.745Z,99.99
2017-10-13T09:28:06.994Z,99.99
2017-10-13T09:29:19.260Z,99.99
2017-10-13T09:30:31.200Z,99.99
2017-10-13T09:31:43.776Z,99.99
2017-10-13T09:32:56.364Z,99.99
2017-10-13T09:34:08.933Z,99.99
2017-10-13T09:35:21.213Z,99.99
2017-10-13T09:36:33.801Z,99.99
2017-10-13T09:37:46.054Z,99.99
2017-10-13T09:38:58.549Z,99.99
2017-10-13T09:40:10.812Z,99.99
2017-10-13T09:41:22.792Z,99.99
2017-10-13T09:42:35.054Z,99.99
2017-10-13T09:43:46.983Z,99.99
2017-10-13T09:44:59.553Z,99.99
2017-10-13T09:46:11.801Z,99.99
2017-10-13T09:47:24.044Z,99.99
2017-10-13T09:48:36.633Z,99.99
2017-10-13T09:49:49.211Z,99.99
2017-10-13T09:51:01.155Z,99.99
2017-10-13T09:52:13.427Z,99.99
2017-10-13T09:53:25.999Z,99.99
2017-10-13T09:54:38.244Z,99.99
2017-10-13T09:55:50.490Z,99.99
2017-10-13T09:57:02.737Z,99.99
2017-10-13T09:58:14.680Z,99.99
2017-10-13T09:59:27.250Z,99.99
2017-10-13T10:00:39.821Z,99.99
2017-10-13T10:01:52.392Z,99.99
2017-10-13T10:03:04.979Z,99.99
2017-10-13T10:04:17.235Z,99.99
2017-10-13T10:05:29.812Z,99.99
2017-10-13T10:06:42.092Z,99.99
2017-10-13T10:07:54.687Z,99.99
2017-10-13T10:09:06.940Z,99.99
2017-10-13T10:10:18.886Z,99.99
2017-10-13T10:11:31.148Z,99.99
2017-10-13T10:12:43.728Z,99.99
2017-10-13T10:13:56.298Z,99.99
2017-10-13T10:15:08.562Z,99.99
2017-10-13T10:16:21.115Z,99.99
2017-10-13T10:17:33.685Z,99.99
2017-10-13T10:18:45.934Z,99.99
2017-10-13T10:19:58.519Z,99.99
2017-10-13T10:21:11.100Z,99.99
2017-10-13T10:22:23.350Z,99.99
2017-10-13T10:23:35.288Z,99.99
2017-10-13T10:24:47.860Z,99.99
2017-10-13T10:25:59.804Z,99.99
2017-10-13T10:27:12.376Z,99.99
2017-10-13T10:28:24.946Z,99.99
2017-10-13T10:29:37.217Z,99.99
2017-10-13T10:30:49.812Z,99.99
2017-10-13T10:32:02.382Z,99.99
2017-10-13T10:33:14.954Z,99.99
2017-10-13T10:34:27.517Z,99.99
2017-10-13T10:35:39.770Z,99.99
2017-10-13T10:36:52.366Z,99.99
2017-10-13T10:38:05.196Z,99.99
2017-10-13T10:39:17.757Z,99.99
2017-10-13T10:40:29.031Z,99.99
2017-10-13T10:41:40.966Z,99.99
2017-10-13T10:42:53.537Z,99.99
2017-10-13T10:44:05.789Z,99.99
2017-10-13T10:45:18.053Z,99.99
2017-10-13T10:46:29.986Z,99.99
2017-10-13T10:47:42.552Z,99.99
2017-10-13T10:48:55.123Z,99.99
2017-10-13T10:50:07.710Z,99.99
2017-10-13T10:51:20.288Z,99.99
2017-10-13T10:52:32.227Z,99.99
2017-10-13T10:53:44.798Z,99.99
2017-10-13T10:54:57.353Z,99.99
2017-10-13T10:56:09.613Z,99.99
2017-10-13T10:57:22.194Z,99.99
2017-10-13T10:58:33.791Z,99.99
2017-10-13T10:59:46.057Z,99.99
2017-10-13T11:00:58.653Z,99.99
2017-10-13T11:02:10.925Z,99.99
2017-10-13T11:03:23.495Z,99.99
2017-10-13T11:04:36.091Z,99.99
2017-10-13T11:05:48.664Z,99.99
2017-10-13T11:07:00.907Z,99.99
2017-10-13T11:08:12.869Z,99.99
2017-10-13T11:09:25.124Z,99.99
2017-10-13T11:10:37.368Z,99.99
2017-10-13T11:11:49.620Z,99.99
2017-10-13T11:13:02.202Z,99.99
2017-10-13T11:14:14.782Z,99.99
2017-10-13T11:15:27.351Z,99.99
2017-10-13T11:16:39.302Z,99.87
2017-10-13T11:17:51.545Z,99.96
2017-10-13T11:19:03.789Z,99.48
2017-10-13T11:20:16.358Z,99.29
2017-10-13T11:21:28.554Z,98.81
2017-10-13T11:22:41.126Z,98.72
2017-10-13T11:23:53.371Z,98.43
2017-10-13T11:25:05.942Z,98.43
2017-10-13T11:26:18.187Z,98.81
2017-10-13T11:27:30.759Z,98.05
2017-10-13T11:28:42.677Z,97.28
2017-10-13T11:29:55.251Z,97.66
2017-10-13T11:31:07.819Z,97.95
2017-10-13T11:32:19.740Z,98.43
2017-10-13T11:33:31.987Z,98.81
2017-10-13T11:34:44.556Z,98.81
2017-10-13T11:35:56.483Z,98.33
2017-10-13T11:37:08.416Z,98.72
2017-10-13T11:38:20.994Z,98.14
2017-10-13T11:39:33.592Z,98.43
2017-10-13T11:40:46.164Z,98.57
2017-10-13T11:41:58.406Z,98.24
2017-10-13T11:43:10.344Z,98.47
2017-10-13T11:44:22.623Z,98.19
2017-10-13T11:45:34.868Z,97.9
2017-10-13T11:46:47.438Z,97.8
2017-10-13T11:47:59.362Z,98.1
2017-10-13T11:49:11.304Z,98.28
2017-10-13T11:50:23.576Z,98.86
2017-10-13T11:51:35.845Z,99.05
2017-10-13T11:52:48.117Z,99.15
2017-10-13T11:54:00.379Z,98.96
2017-10-13T11:55:12.309Z,98.86
2017-10-13T11:56:24.558Z,99.15
2017-10-13T11:57:36.848Z,99.34
2017-10-13T11:58:49.096Z,99.63
2017-10-13T12:00:01.343Z,99.72
2017-10-13T12:01:13.329Z,99.99
2017-10-13T12:02:25.582Z,99.99
2017-10-13T12:03:37.854Z,99.99
2017-10-13T12:04:50.423Z,99.99
2017-10-13T12:06:02.995Z,99.99
2017-10-13T12:07:15.288Z,99.99
2017-10-13T12:08:27.534Z,99.99
2017-10-13T12:09:39.780Z,99.63
2017-10-13T12:10:52.045Z,99.24
2017-10-13T12:12:04.322Z,98.47
2017-10-13T12:13:16.593Z,98.76
2017-10-13T12:14:29.181Z,99.05
2017-10-13T12:15:41.752Z,99.05
2017-10-13T12:16:53.698Z,99.24
2017-10-13T12:18:05.627Z,99.53
2017-10-13T12:19:18.195Z,99.68
2017-10-13T12:20:30.117Z,99.68
2017-10-13T12:21:42.063Z,99.19
2017-10-13T12:22:54.326Z,98.33
2017-10-13T12:24:06.580Z,98.14
2017-10-13T12:25:19.175Z,98.33
2017-10-13T12:26:31.446Z,98.14
2017-10-13T12:27:43.708Z,97.42
2017-10-13T12:28:55.966Z,97.04
2017-10-13T12:30:08.251Z,96.85
2017-10-13T12:31:20.503Z,96.94
2017-10-13T12:32:33.099Z,95.79
2017-10-13T12:33:45.669Z,96.66
2017-10-13T12:34:58.240Z,95.79
2017-10-13T12:36:10.511Z,96.08
2017-10-13T12:37:22.756Z,96.08
2017-10-13T12:38:35.328Z,96.75
2017-10-13T12:39:47.898Z,96.37
2017-10-13T12:41:00.143Z,95.7
2017-10-13T12:42:12.389Z,96.56
2017-10-13T12:43:24.659Z,96.75
2017-10-13T12:44:37.229Z,96.08
2017-10-13T12:45:49.803Z,96.18
2017-10-13T12:47:02.058Z,96.37
2017-10-13T12:48:14.334Z,96.66
2017-10-13T12:49:26.914Z,96.94
2017-10-13T12:50:39.184Z,97.33
2017-10-13T12:51:51.753Z,97.14
2017-10-13T12:53:03.700Z,97.14
2017-10-13T12:54:16.271Z,98.19
2017-10-13T12:55:28.517Z,97.61
2017-10-13T12:56:41.086Z,97.42
2017-10-13T12:57:53.012Z,97.42
2017-10-13T12:59:04.942Z,97.33
2017-10-13T13:00:17.503Z,98.1
2017-10-13T13:01:30.070Z,98.19
2017-10-13T13:02:42.657Z,98.1
2017-10-13T13:03:54.909Z,97.9
2017-10-13T13:05:06.531Z,98
2017-10-13T13:06:19.103Z,97.9
2017-10-13T13:07:31.672Z,98.19
2017-10-13T13:08:43.619Z,98.1
2017-10-13T13:09:55.576Z,98.1
2017-10-13T13:11:08.160Z,99.24
2017-10-13T13:12:20.436Z,98.38
2017-10-13T13:13:32.051Z,98.91
2017-10-13T13:14:44.347Z,98.43
2017-10-13T13:15:56.917Z,98.33
2017-10-13T13:17:09.188Z,98.14
2017-10-13T13:18:21.783Z,98.91
2017-10-13T13:19:34.039Z,99.01
2017-10-13T13:20:46.666Z,99.29
2017-10-13T13:21:58.970Z,99.2
2017-10-13T13:23:11.540Z,98.72
2017-10-13T13:24:24.112Z,97.66
2017-10-13T13:25:36.357Z,97.86
2017-10-13T13:26:48.927Z,97.47
2017-10-13T13:28:01.501Z,97.28
2017-10-13T13:29:13.419Z,96.89
2017-10-13T13:30:26.016Z,96.8
2017-10-13T13:31:38.585Z,97.19
2017-10-13T13:32:51.157Z,96.89
2017-10-13T13:34:03.426Z,96.7
2017-10-13T13:35:15.673Z,96.61
2017-10-13T13:36:28.260Z,96.7
2017-10-13T13:37:40.841Z,96.7
2017-10-13T13:38:53.434Z,97.09
2017-10-13T13:40:05.733Z,96.89
2017-10-13T13:41:17.675Z,96.61
2017-10-13T13:42:30.496Z,96.61
2017-10-13T13:43:43.067Z,96.32
2017-10-13T13:44:55.636Z,95.94
2017-10-13T13:46:07.887Z,96.32
2017-10-13T13:47:20.129Z,95.94
2017-10-13T13:48:32.717Z,96.13
2017-10-13T13:49:44.662Z,96.13
2017-10-13T13:50:56.591Z,95.65
2017-10-13T13:52:08.211Z,96.42
2017-10-13T13:53:20.456Z,97.47
2017-10-13T13:54:33.032Z,96.42
2017-10-13T13:55:45.598Z,96.56
2017-10-13T13:56:58.170Z,97.14
2017-10-13T13:58:10.739Z,97.14
2017-10-13T13:59:23.328Z,97.52
2017-10-13T14:00:35.899Z,97.61
2017-10-13T14:01:48.476Z,97.42
2017-10-13T14:03:01.048Z,97.66
2017-10-13T14:04:13.319Z,98.19
2017-10-13T14:05:25.562Z,98.43
2017-10-13T14:06:38.135Z,97.66
2017-10-13T14:07:50.704Z,97.28
2017-10-13T14:09:03.276Z,97.23
2017-10-13T14:10:15.521Z,98.19
2017-10-13T14:11:27.142Z,98.1
2017-10-13T14:12:39.713Z,98.28
2017-10-13T14:13:51.663Z,98.33
2017-10-13T14:15:03.296Z,98
2017-10-13T14:16:15.574Z,98.57
2017-10-13T14:17:28.188Z,99.15
2017-10-13T14:18:40.441Z,98.28
2017-10-13T14:19:53.012Z,98.77
2017-10-13T14:21:05.275Z,99.34
2017-10-13T14:22:17.856Z,98.77
2017-10-13T14:23:30.425Z,98.96
2017-10-13T14:24:42.369Z,99.05
2017-10-13T14:25:54.990Z,99.34
2017-10-13T14:27:07.260Z,98.96
2017-10-13T14:28:19.523Z,99.24
2017-10-13T14:29:31.802Z,99.63
2017-10-13T14:30:44.389Z,99.34
2017-10-13T14:31:56.646Z,99.91
2017-10-13T14:33:08.906Z,99.82
2017-10-13T14:34:21.159Z,99.82
2017-10-13T14:35:33.730Z,99.87
2017-10-13T14:36:45.975Z,99.99
2017-10-13T14:37:58.538Z,99.99
2017-10-13T14:39:11.097Z,99.99
2017-10-13T14:40:23.662Z,99.99
2017-10-13T14:41:36.234Z,99.99
2017-10-13T14:42:48.753Z,99.99
2017-10-13T14:44:01.017Z,99.99
2017-10-13T14:45:13.263Z,99.99
2017-10-13T14:46:25.833Z,99.99
2017-10-13T14:47:38.087Z,99.99
2017-10-13T14:48:50.674Z,99.99
2017-10-13T14:50:03.231Z,99.99
2017-10-13T14:51:15.823Z,99.99
2017-10-13T14:52:28.086Z,99.99
2017-10-13T14:53:40.358Z,99.99
2017-10-13T14:54:52.614Z,99.99
2017-10-13T14:56:05.206Z,99.99
2017-10-13T14:57:17.130Z,99.99
2017-10-13T14:58:29.947Z,99.99
2017-10-13T14:59:41.893Z,99.99
2017-10-13T15:00:54.165Z,99.99
2017-10-13T15:02:06.421Z,99.99
2017-10-13T15:03:18.979Z,99.99
2017-10-13T15:04:31.549Z,99.99
2017-10-13T15:05:43.796Z,99.99
2017-10-13T15:06:56.365Z,99.99
2017-10-13T15:08:08.330Z,99.99
2017-10-13T15:09:20.582Z,99.99
2017-10-13T15:10:32.901Z,99.99
2017-10-13T15:11:45.167Z,99.99
2017-10-13T15:12:57.420Z,99.99
2017-10-13T15:14:09.990Z,99.99
2017-10-13T15:15:22.235Z,99.99
2017-10-13T15:16:34.198Z,99.99
2017-10-13T15:17:46.802Z,99.99
2017-10-13T15:18:59.073Z,99.99
2017-10-13T15:20:11.344Z,99.99
2017-10-13T15:21:23.613Z,99.99
2017-10-13T15:22:36.185Z,99.99
2017-10-13T15:23:48.755Z,99.99
2017-10-13T15:25:01.326Z,99.99
2017-10-13T15:26:13.598Z,99.99
2017-10-13T15:27:25.843Z,99.99
2017-10-13T15:28:38.089Z,99.99
2017-10-13T15:29:50.334Z,99.99
2017-10-13T15:31:02.580Z,99.99
2017-10-13T15:32:15.150Z,99.99